Whiting Field Naval Air Station North Airport
KNSE : rendu visible

Aérodrome :











RETROUVEZ-NOUS SUR...

 
LOGIN :

S'inscrire | Disclaimer

   EN    FR    IT 

 









Légende :    VFR   VFR Marginal   IFR   IFR Intensif   IFR Très Intensif
Visi : 
Plafond : 
>= 8 km
>= 3000ft
5 à 8 km
1000 à 3000 ft
1500m à 5 km
500 à 1000 ft
800 à 1500m
200 à 500 ft
< 800m
< 200 ft
Symboles :   Orages  Brouillard  Fortes neiges  Fortes précipitations  Vent > 20 kt






- Altitude de l'aérodrome : 199 ft


KNSE - Whiting Field Naval Air Station North

DERNIER METAR :
  • 200445Z 29005KT 10SM CLR 11/08 A3005 RMK AO2 T01060078 $

METARs EXPIRÉS :
  • 200356Z 28005KT 10SM CLR 11/08 A3004 RMK AO2 SLP161 T01060078 $
  • 200256Z 26006KT 10SM CLR 12/08 A3004 RMK AO2 SLP159 T01170078 51016 $
  • 200156Z 25006KT 10SM CLR 13/07 A3003 RMK AO2 SLP155 T01280072 $

TAF TAF KNSE
Valide du 19 à 23h jusqu'au 20 à 23h UTC


1923/2023 27005KT 9999 SKC QNH2993INS
TEMPO 2008/2012 00000KT 6000 BR FEW003
FM201500 03007KT 9999 FEW250 QNH3018INS
FM201800 01010KT 9999 SCT250 QNH3015INS AUTOMATED SENSOR METWATCH 2005 TIL 2012 T05/2012Z T20/2020Z FN20029



MET'MAP, la Météo Aéronautique d'un coup d'oeil ! - Copyright ORBIFLY Décembre 2007 - Disclaimer

ORBIFLY MET'MAP TEAM :

Programmation & Développement : Alexandra Zaïnal
Conception & Développement : Baudouin d'Aumeries
Co-Programmation & Développement : Marc-Olivier Méhu
Soutien technique & logistique : Manuel Goepfert

Contact : metmap@orbifly.com




SOURCES & CREDITS :

   NOAA       Earth
Advisory